Time;durP1;ratioP1;P1;durP2;ratioP2;P2;SDS_P1;SDS_P2;PMS_P1;PMS_P2;Temp;Humidity;BMP_temperature;BMP_pressure;BME280_temperature;BME280_humidity;BME280_pressure;Samples;Min_cycle;Max_cycle;Signal;HPM_P1;HPM_P2
2022/06/11 00:01:56;;;;;;;3.23;2.93;;;18.00;99.90;;;;;;5018749;28;21037;-87
2022/06/11 00:04:37;;;;;;;4.30;3.43;;;18.00;99.90;;;;;;5025946;28;20482;-87
2022/06/11 00:07:07;;;;;;;3.63;3.33;;;18.00;99.90;;;;;;5046128;28;20467;-87
2022/06/11 00:09:36;;;;;;;3.67;3.37;;;18.10;99.90;;;;;;5036314;28;20520;-92
2022/06/11 00:12:03;;;;;;;5.40;2.90;;;18.10;99.90;;;;;;5018437;28;20478;-88
2022/06/11 00:14:31;;;;;;;4.20;3.80;;;18.10;99.90;;;;;;5018230;28;20419;-88
2022/06/11 00:16:58;;;;;;;5.37;2.53;;;18.10;99.90;;;;;;5031047;28;20447;-91
2022/06/11 00:19:30;;;;;;;6.63;3.53;;;18.10;99.90;;;;;;5034844;28;20511;-89
2022/06/11 00:21:56;;;;;;;4.83;3.50;;;18.10;99.90;;;;;;5036090;28;20459;-89
2022/06/11 00:24:24;;;;;;;4.13;3.33;;;18.10;99.90;;;;;;5035024;28;20536;-90
2022/06/11 00:26:51;;;;;;;5.37;4.57;;;18.00;99.90;;;;;;5035147;28;20410;-89
2022/06/11 00:29:18;;;;;;;5.00;3.80;;;17.80;99.90;;;;;;5054032;28;20432;-91
2022/06/11 00:31:44;;;;;;;4.27;3.23;;;18.10;99.90;;;;;;5055709;28;20473;-90
2022/06/11 00:34:11;;;;;;;3.30;3.00;;;18.00;99.90;;;;;;5034936;28;20427;-90
2022/06/11 00:36:38;;;;;;;5.20;2.67;;;17.90;99.90;;;;;;5035098;28;20681;-90
2022/06/11 00:39:05;;;;;;;3.27;2.97;;;17.90;99.90;;;;;;5033807;28;20417;-91
2022/06/11 00:41:35;;;;;;;4.40;3.30;;;17.90;99.90;;;;;;5034645;28;20507;-90
2022/06/11 00:44:04;;;;;;;3.80;2.90;;;17.80;99.90;;;;;;5035025;28;20413;-90
2022/06/11 00:46:58;;;;;;;5.53;3.30;;;17.80;99.90;;;;;;5035325;28;20430;-88
2022/06/11 00:49:44;;;;;;;6.00;4.00;;;17.80;99.90;;;;;;5034550;28;20428;-88
2022/06/11 00:52:27;;;;;;;4.87;3.20;;;17.80;99.90;;;;;;5034314;28;20481;-89
2022/06/11 00:55:00;;;;;;;4.43;3.10;;;17.80;99.90;;;;;;5033730;28;20527;-89
2022/06/11 00:57:30;;;;;;;4.30;3.10;;;17.80;99.90;;;;;;5017833;28;20935;-89
2022/06/11 01:00:00;;;;;;;4.40;3.50;;;17.80;99.90;;;;;;5034119;28;20929;-89
2022/06/11 01:02:26;;;;;;;3.67;3.20;;;;;;;;;;5033880;28;20581;-90
2022/06/11 01:04:55;;;;;;;6.00;4.80;;;17.90;99.90;;;;;;5034906;28;20856;-89
2022/06/11 01:07:43;;;;;;;7.43;3.87;;;17.90;99.90;;;;;;5035369;28;20421;-89
2022/06/11 01:10:22;;;;;;;5.80;3.80;;;18.00;99.90;;;;;;5033379;28;20917;-88
2022/06/11 01:13:05;;;;;;;8.37;4.20;;;18.00;99.90;;;;;;5031068;28;20427;-89
2022/06/11 01:15:36;;;;;;;7.13;3.40;;;18.00;99.90;;;;;;5016740;28;20436;-89
2022/06/11 01:18:38;;;;;;;3.80;3.50;;;18.10;99.90;;;;;;5018334;28;20908;-93
2022/06/11 01:21:41;;;;;;;6.03;2.90;;;18.00;99.90;;;;;;5018716;28;20474;-94
2022/06/11 01:24:44;;;;;;;2.90;2.70;;;17.90;99.90;;;;;;5018401;28;20601;-91
2022/06/11 01:27:28;;;;;;;4.17;3.70;;;18.00;99.90;;;;;;5035601;28;20424;-93
2022/06/11 01:30:00;;;;;;;6.97;3.20;;;17.90;99.90;;;;;;5018135;28;20420;-92
2022/06/11 01:32:48;;;;;;;5.13;2.67;;;18.00;99.90;;;;;;5018457;28;20456;-91
2022/06/11 01:35:32;;;;;;;3.57;3.00;;;18.10;99.90;;;;;;5017640;28;20423;-94
2022/06/11 01:38:03;;;;;;;6.27;3.77;;;18.10;99.90;;;;;;5017416;28;20432;-90
2022/06/11 01:40:42;;;;;;;3.97;3.23;;;18.10;99.90;;;;;;5017674;28;20414;-91
2022/06/11 01:43:18;;;;;;;4.73;3.43;;;18.10;99.90;;;;;;5018560;28;20472;-92
2022/06/11 01:45:45;;;;;;;5.50;3.20;;;18.20;99.90;;;;;;5019178;28;20467;-95
2022/06/11 01:48:15;;;;;;;4.30;3.47;;;18.20;99.90;;;;;;5019095;28;20435;-92
2022/06/11 01:50:53;;;;;;;3.17;2.97;;;18.10;99.90;;;;;;5017880;28;20401;-92
2022/06/11 01:53:41;;;;;;;3.83;2.70;;;18.00;99.90;;;;;;5018355;28;20432;-92
2022/06/11 01:56:30;;;;;;;4.70;3.10;;;18.00;99.90;;;;;;5027495;28;20404;-91
2022/06/11 01:59:20;;;;;;;4.00;2.67;;;17.80;99.90;;;;;;5028521;28;20484;-92
2022/06/11 02:02:19;;;;;;;3.57;2.37;;;17.80;99.90;;;;;;5041205;28;20471;-91
2022/06/11 02:04:59;;;;;;;5.13;3.50;;;17.80;99.90;;;;;;5016710;28;20769;-90
2022/06/11 02:07:49;;;;;;;4.43;2.70;;;17.80;99.90;;;;;;5017240;28;20776;-90
2022/06/11 02:10:23;;;;;;;3.43;2.63;;;17.80;99.90;;;;;;5016871;28;20928;-92
2022/06/11 02:12:58;;;;;;;3.00;2.80;;;17.90;99.90;;;;;;5016712;28;20439;-91
2022/06/11 02:15:41;;;;;;;4.27;3.40;;;17.80;99.90;;;;;;5016608;28;20465;-90
2022/06/11 02:18:10;;;;;;;5.83;3.07;;;17.80;99.90;;;;;;5017136;28;20464;-91
2022/06/11 02:21:02;;;;;;;3.90;3.60;;;17.80;99.90;;;;;;5016464;28;20417;-91
2022/06/11 02:23:39;;;;;;;5.90;3.03;;;17.70;99.90;;;;;;5016819;28;20500;-89
2022/06/11 02:26:15;;;;;;;5.10;2.77;;;17.80;99.90;;;;;;5016206;28;20447;-90
2022/06/11 02:28:47;;;;;;;5.50;3.50;;;17.70;99.90;;;;;;5016643;28;20420;-90
2022/06/11 02:31:15;;;;;;;5.57;3.77;;;17.60;99.90;;;;;;5016386;28;20480;-91
2022/06/11 02:33:42;;;;;;;4.17;3.13;;;17.80;99.90;;;;;;5016770;28;20417;-91
2022/06/11 02:36:10;;;;;;;3.70;2.90;;;17.80;99.90;;;;;;5016338;28;20482;-90
2022/06/11 02:38:36;;;;;;;4.60;3.33;;;17.80;99.90;;;;;;5034097;28;20412;-92
2022/06/11 02:41:08;;;;;;;4.37;2.80;;;17.90;99.90;;;;;;5016023;28;21011;-89
2022/06/11 02:43:33;;;;;;;3.80;3.50;;;17.90;99.90;;;;;;5034304;28;20662;-90
2022/06/11 02:46:40;;;;;;;3.73;3.37;;;17.90;99.90;;;;;;5016445;28;20466;-92
2022/06/11 02:48:45;;;;;;;5.03;3.87;;;17.90;99.90;;;;;;5034017;28;20506;-92
2022/06/11 02:51:13;;;;;;;3.53;3.23;;;17.80;99.90;;;;;;5016327;28;20470;-91
2022/06/11 02:53:41;;;;;;;5.80;2.40;;;17.90;99.90;;;;;;5016447;28;20171;-91
2022/06/11 02:56:19;;;;;;;4.70;3.27;;;17.80;99.90;;;;;;5015917;28;20416;-91
2022/06/11 02:58:45;;;;;;;5.00;3.20;;;17.80;99.90;;;;;;5016279;28;20779;-91
2022/06/11 03:01:11;;;;;;;6.37;2.90;;;17.80;99.90;;;;;;5016560;28;20508;-89
2022/06/11 03:03:37;;;;;;;6.43;2.90;;;17.80;99.90;;;;;;5019207;28;20209;-92
2022/06/11 03:06:03;;;;;;;2.80;2.30;;;17.80;99.90;;;;;;5019187;28;20272;-88
2022/06/11 03:08:29;;;;;;;4.30;3.00;;;17.80;99.90;;;;;;5019328;28;20834;-89
2022/06/11 03:10:55;;;;;;;4.60;3.20;;;17.70;99.90;;;;;;5019084;28;20810;-87
2022/06/11 03:13:22;;;;;;;4.50;3.30;;;17.80;99.90;;;;;;5018970;28;20435;-87
2022/06/11 03:15:47;;;;;;;4.80;4.10;;;17.70;99.90;;;;;;5036663;28;20632;-88
2022/06/11 03:18:16;;;;;;;4.57;3.50;;;17.70;99.90;;;;;;5019116;28;20427;-88
2022/06/11 03:20:42;;;;;;;6.70;3.30;;;17.80;99.90;;;;;;5018847;28;20579;-87
2022/06/11 03:23:09;;;;;;;3.60;3.07;;;17.70;99.90;;;;;;5019048;28;20514;-87
2022/06/11 03:25:35;;;;;;;2.83;2.53;;;17.60;99.90;;;;;;5036565;28;20466;-88
2022/06/11 03:28:10;;;;;;;4.90;2.77;;;17.60;99.90;;;;;;5019142;28;20434;-89
2022/06/11 03:30:36;;;;;;;4.20;2.93;;;17.50;99.90;;;;;;5019060;28;20436;-89
2022/06/11 03:33:01;;;;;;;3.27;3.00;;;17.50;99.90;;;;;;5018625;28;20465;-88
2022/06/11 03:35:27;;;;;;;6.07;4.30;;;17.50;99.90;;;;;;5018846;28;20181;-87
2022/06/11 03:37:52;;;;;;;3.93;2.80;;;17.50;99.90;;;;;;5018559;28;20186;-88
2022/06/11 03:40:18;;;;;;;6.97;3.33;;;17.60;99.90;;;;;;5018413;28;20266;-89
2022/06/11 03:42:43;;;;;;;3.33;2.90;;;17.50;99.90;;;;;;5018656;28;20632;-88
2022/06/11 03:45:11;;;;;;;3.60;3.30;;;17.50;99.90;;;;;;5019352;28;20203;-93
2022/06/11 03:47:38;;;;;;;5.07;3.70;;;17.40;99.90;;;;;;5019639;28;20180;-89
2022/06/11 03:50:07;;;;;;;8.60;3.53;;;17.40;99.90;;;;;;5035511;28;20419;-88
2022/06/11 03:52:33;;;;;;;5.10;3.00;;;17.50;99.90;;;;;;5046681;28;20431;-91
2022/06/11 03:54:58;;;;;;;4.20;2.93;;;17.50;99.90;;;;;;5018690;28;20420;-89
2022/06/11 03:57:24;;;;;;;2.93;2.73;;;17.60;99.90;;;;;;5019080;28;20216;-89
2022/06/11 03:59:50;;;;;;;4.63;3.17;;;17.60;99.90;;;;;;5018877;28;20172;-91
2022/06/11 04:02:15;;;;;;;4.77;3.47;;;17.60;99.90;;;;;;5018714;28;20659;-89
2022/06/11 04:04:41;;;;;;;2.90;2.10;;;17.60;99.90;;;;;;5018808;28;20657;-88
2022/06/11 04:07:07;;;;;;;4.70;3.07;;;17.50;99.90;;;;;;5036148;28;20174;-92
2022/06/11 04:09:37;;;;;;;4.10;3.73;;;17.60;99.90;;;;;;5035555;28;20412;-87
2022/06/11 04:12:05;;;;;;;6.60;4.97;;;17.60;99.90;;;;;;5018138;28;20185;-87
2022/06/11 04:14:30;;;;;;;4.70;3.27;;;17.70;99.90;;;;;;5035629;28;20426;-89
2022/06/11 04:17:06;;;;;;;3.73;3.07;;;17.70;99.90;;;;;;5018088;28;20414;-88
2022/06/11 04:19:35;;;;;;;5.20;4.10;;;17.80;99.90;;;;;;5017949;28;20226;-89
2022/06/11 04:22:02;;;;;;;5.00;3.40;;;17.80;99.90;;;;;;5018010;28;20479;-88
2022/06/11 04:24:29;;;;;;;6.57;4.20;;;17.90;99.90;;;;;;5017582;28;20428;-89
2022/06/11 04:26:58;;;;;;;4.40;3.80;;;18.00;99.90;;;;;;5035763;28;20435;-89
2022/06/11 04:29:27;;;;;;;4.50;3.63;;;18.00;99.90;;;;;;5035472;28;20463;-88
2022/06/11 04:31:54;;;;;;;6.30;3.97;;;18.10;99.90;;;;;;5017522;28;20482;-88
2022/06/11 04:34:22;;;;;;;4.60;3.63;;;18.10;99.90;;;;;;5017891;28;20530;-88
2022/06/11 04:36:48;;;;;;;5.37;3.70;;;18.20;99.90;;;;;;5017949;28;20434;-90
2022/06/11 04:39:17;;;;;;;5.73;3.60;;;18.30;99.90;;;;;;5035944;28;20441;-90
2022/06/11 04:41:47;;;;;;;5.50;4.40;;;18.30;99.90;;;;;;5017936;28;20519;-90
2022/06/11 04:44:13;;;;;;;3.70;3.07;;;18.40;99.90;;;;;;5017907;28;20432;-88
2022/06/11 04:46:38;;;;;;;5.30;3.50;;;18.50;99.90;;;;;;5035486;28;20409;-89
2022/06/11 04:49:11;;;;;;;4.60;3.17;;;18.50;99.90;;;;;;5035114;28;20422;-89
2022/06/11 04:51:37;;;;;;;4.20;3.80;;;18.50;99.90;;;;;;5017562;28;20189;-89
2022/06/11 04:54:03;;;;;;;4.40;3.23;;;18.70;99.90;;;;;;5017618;28;20421;-88
2022/06/11 04:56:29;;;;;;;6.63;3.47;;;18.70;99.90;;;;;;5017202;28;20185;-89
2022/06/11 04:58:55;;;;;;;4.07;3.67;;;18.60;99.90;;;;;;5017507;28;20933;-88
2022/06/11 05:01:21;;;;;;;6.47;3.33;;;18.60;99.90;;;;;;5017602;28;20466;-90
2022/06/11 05:03:48;;;;;;;5.10;3.63;;;18.50;99.90;;;;;;5017657;28;20519;-89
2022/06/11 05:06:16;;;;;;;6.57;4.20;;;18.50;99.90;;;;;;5017394;28;20461;-90
2022/06/11 05:08:42;;;;;;;3.90;3.43;;;18.60;99.90;;;;;;5017653;28;20473;-89
2022/06/11 05:11:11;;;;;;;4.80;3.30;;;18.70;99.90;;;;;;5017513;28;20416;-91
2022/06/11 05:13:36;;;;;;;4.10;3.10;;;18.90;99.90;;;;;;5018089;28;20204;-91
2022/06/11 05:16:02;;;;;;;3.03;2.70;;;19.00;99.90;;;;;;5018285;28;20443;-91
2022/06/11 05:18:30;;;;;;;4.43;3.20;;;19.10;99.90;;;;;;5017762;28;20264;-91
2022/06/11 05:20:56;;;;;;;4.90;3.00;;;19.20;99.90;;;;;;5017497;28;20419;-91
2022/06/11 05:23:22;;;;;;;3.20;2.90;;;19.20;99.90;;;;;;5017816;28;20428;-91
2022/06/11 05:25:48;;;;;;;3.73;3.33;;;19.30;99.90;;;;;;5016649;28;20220;-90
2022/06/11 05:28:21;;;;;;;3.90;2.80;;;19.40;99.90;;;;;;5035196;28;20467;-90
2022/06/11 05:30:47;;;;;;;5.63;2.80;;;19.50;99.90;;;;;;5035299;28;20395;-90
2022/06/11 05:33:13;;;;;;;5.33;3.47;;;19.70;99.90;;;;;;5017742;28;20494;-91
2022/06/11 05:35:39;;;;;;;5.57;3.03;;;19.90;99.90;;;;;;5017932;28;20504;-90
2022/06/11 05:38:08;;;;;;;3.67;3.37;;;20.00;99.90;;;;;;5017321;28;20182;-90
2022/06/11 05:40:41;;;;;;;4.03;2.93;;;20.40;99.90;;;;;;5016752;28;20472;-90
2022/06/11 05:43:06;;;;;;;4.90;3.00;;;20.40;86.10;;;;;;5017487;28;20466;-90
2022/06/11 05:45:36;;;;;;;6.00;2.90;;;20.40;1.00;;;;;;5017238;28;20417;-90
2022/06/11 05:48:04;;;;;;;3.07;2.80;;;20.60;1.00;;;;;;5016956;28;20171;-90
2022/06/11 05:50:33;;;;;;;6.40;3.33;;;20.60;1.00;;;;;;5017117;28;20414;-87
2022/06/11 05:53:02;;;;;;;4.60;3.27;;;20.60;1.00;;;;;;5035499;28;20421;-87
2022/06/11 05:55:30;;;;;;;5.97;3.47;;;20.90;1.00;;;;;;5038741;28;20409;-87
2022/06/11 05:57:59;;;;;;;4.43;3.00;;;21.10;1.00;;;;;;5017332;28;20428;-87
2022/06/11 06:00:28;;;;;;;4.27;3.87;;;21.20;1.00;;;;;;5034043;28;20416;-88
2022/06/11 06:02:53;;;;;;;3.90;2.93;;;21.40;99.90;;;;;;5033663;28;20557;-88
2022/06/11 06:05:23;;;;;;;4.60;3.57;;;21.30;1.00;;;;;;5015937;28;20507;-87
2022/06/11 06:07:49;;;;;;;6.33;4.63;;;21.50;99.90;;;;;;5033993;28;20178;-90
2022/06/11 06:10:14;;;;;;;5.43;3.60;;;21.90;99.90;;;;;;5033426;28;20416;-88
2022/06/11 06:12:40;;;;;;;5.00;2.63;;;22.00;1.00;;;;;;5016343;28;20173;-95
2022/06/11 06:15:15;;;;;;;3.97;2.73;;;22.10;99.90;;;;;;5017052;28;20172;-90
2022/06/11 06:17:41;;;;;;;6.20;2.70;;;22.10;1.00;;;;;;5041313;28;20173;-89
2022/06/11 06:20:11;;;;;;;5.07;3.00;;;21.80;99.90;;;;;;5039500;28;20420;-89
2022/06/11 06:22:36;;;;;;;4.63;3.63;;;21.70;99.90;;;;;;5034386;28;20510;-91
2022/06/11 06:25:02;;;;;;;6.80;3.43;;;21.60;1.00;;;;;;5018136;28;20432;-88
2022/06/11 06:27:27;;;;;;;6.43;4.00;;;21.50;1.00;;;;;;5033511;28;20180;-87
2022/06/11 06:29:53;;;;;;;7.33;3.10;;;21.40;1.00;;;;;;5038312;28;20182;-88
2022/06/11 06:32:18;;;;;;;5.90;3.07;;;21.70;1.00;;;;;;5019340;28;20238;-88
2022/06/11 06:34:44;;;;;;;8.13;4.47;;;21.90;1.00;;;;;;5015900;28;20226;-88
2022/06/11 06:37:11;;;;;;;6.80;3.00;;;22.30;99.90;;;;;;5015468;28;20278;-91
2022/06/11 06:39:36;;;;;;;7.30;4.03;;;22.70;99.90;;;;;;5032758;28;20180;-87
2022/06/11 06:42:02;;;;;;;5.03;3.43;;;22.90;99.90;;;;;;5015464;28;20482;-88
2022/06/11 06:44:27;;;;;;;5.40;3.67;;;22.90;95.30;;;;;;5015556;28;20177;-89
2022/06/11 06:46:53;;;;;;;7.37;3.40;;;23.30;99.90;;;;;;5033301;28;20180;-88
2022/06/11 06:49:19;;;;;;;4.33;2.60;;;23.50;99.90;;;;;;5033078;28;20185;-87
2022/06/11 06:51:44;;;;;;;5.97;2.67;;;24.20;1.00;;;;;;5032685;28;20182;-87
2022/06/11 06:54:10;;;;;;;5.83;2.97;;;23.90;1.00;;;;;;5015529;28;20174;-89
2022/06/11 06:56:35;;;;;;;5.10;2.47;;;23.60;99.90;;;;;;5016341;28;20181;-88
2022/06/11 06:59:03;;;;;;;5.10;2.40;;;25.40;1.00;;;;;;5033308;28;20163;-87
2022/06/11 07:01:30;;;;;;;3.60;1.70;;;24.90;1.00;;;;;;5016302;28;20214;-91
2022/06/11 07:03:57;;;;;;;4.00;1.57;;;24.20;99.90;;;;;;5033335;28;20917;-90
2022/06/11 07:06:24;;;;;;;4.30;1.80;;;23.80;99.90;;;;;;5015859;28;20459;-91
2022/06/11 07:08:51;;;;;;;2.70;1.70;;;23.20;1.00;;;;;;5022954;28;20435;-91
2022/06/11 07:11:17;;;;;;;1.90;1.20;;;22.80;1.00;;;;;;5027586;28;20917;-90
2022/06/11 07:13:42;;;;;;;4.83;1.60;;;22.50;1.00;;;;;;5030875;28;20449;-88
2022/06/11 07:16:08;;;;;;;3.33;1.40;;;22.60;99.90;;;;;;5033137;28;20203;-90
2022/06/11 07:18:45;;;;;;;3.70;1.40;;;23.00;1.00;;;;;;5039206;28;20215;-91
2022/06/11 07:21:19;;;;;;;3.90;1.80;;;23.40;1.00;;;;;;5035968;28;20468;-89
2022/06/11 07:23:50;;;;;;;2.80;1.80;;;23.10;1.00;;;;;;5017400;28;20467;-91
2022/06/11 07:26:47;;;;;;;4.93;2.10;;;22.90;99.90;;;;;;5016074;28;20826;-90
2022/06/11 07:29:27;;;;;;;4.37;1.50;;;23.20;1.00;;;;;;5012497;28;20425;-90
2022/06/11 07:31:58;;;;;;;5.03;2.70;;;22.80;62.70;;;;;;5015699;28;20464;-90
2022/06/11 07:34:24;;;;;;;5.30;2.57;;;22.10;1.00;;;;;;5016003;28;20423;-89
2022/06/11 07:36:50;;;;;;;5.53;2.47;;;21.80;1.00;;;;;;5033103;28;20797;-89
2022/06/11 07:39:19;;;;;;;5.23;2.53;;;22.30;99.90;;;;;;5006526;28;20220;-91
2022/06/11 07:41:44;;;;;;;4.60;2.20;;;25.40;1.00;;;;;;5006054;28;20479;-90
2022/06/11 07:44:10;;;;;;;4.90;2.23;;;26.50;99.90;;;;;;5000568;28;20410;-91
2022/06/11 07:46:35;;;;;;;4.23;2.50;;;25.60;99.90;;;;;;5004363;28;20547;-89
2022/06/11 07:49:01;;;;;;;5.13;2.20;;;27.10;99.90;;;;;;5009078;28;20540;-89
2022/06/11 07:51:26;;;;;;;4.20;1.90;;;27.20;99.90;;;;;;5009715;28;20267;-89
2022/06/11 07:53:52;;;;;;;5.70;3.00;;;26.90;99.90;;;;;;5006749;28;20684;-90
2022/06/11 07:56:19;;;;;;;4.43;1.67;;;26.30;99.90;;;;;;5006692;28;20296;-91
2022/06/11 07:58:45;;;;;;;6.80;2.63;;;26.90;99.90;;;;;;5007599;28;20206;-89
2022/06/11 08:01:11;;;;;;;3.73;1.97;;;28.30;99.90;;;;;;5006942;28;20461;-90
2022/06/11 08:03:38;;;;;;;3.80;2.20;;;28.60;99.90;;;;;;5006813;28;20425;-90
2022/06/11 08:06:06;;;;;;;5.63;3.30;;;28.20;99.90;;;;;;5009216;28;20170;-90
2022/06/11 08:08:35;;;;;;;4.17;2.10;;;29.30;99.90;;;;;;4999714;28;20793;-89
2022/06/11 08:11:08;;;;;;;4.80;2.40;;;29.90;99.90;;;;;;5007103;28;20426;-90
2022/06/11 08:13:34;;;;;;;8.40;4.13;;;29.80;99.90;;;;;;5006593;28;20428;-89
2022/06/11 08:16:10;;;;;;;5.10;2.40;;;29.90;99.90;;;;;;5025517;28;20409;-86
2022/06/11 08:18:37;;;;;;;3.53;2.90;;;30.90;99.90;;;;;;5005132;28;20177;-90
2022/06/11 08:21:03;;;;;;;7.97;3.23;;;31.00;99.90;;;;;;5007754;28;20461;-88
2022/06/11 08:23:29;;;;;;;4.77;3.13;;;27.20;95.60;;;;;;5027762;28;20832;-87
2022/06/11 08:25:55;;;;;;;4.90;3.30;;;27.70;99.90;;;;;;5005897;28;20414;-87
2022/06/11 08:28:21;;;;;;;7.60;3.90;;;27.70;99.90;;;;;;5015519;28;20213;-87
2022/06/11 08:30:48;;;;;;;4.77;3.40;;;28.50;99.90;;;;;;4997819;28;20809;-87
2022/06/11 08:33:14;;;;;;;4.37;3.50;;;28.40;99.90;;;;;;4997644;28;20257;-88
2022/06/11 08:35:40;;;;;;;3.43;3.13;;;29.70;99.90;;;;;;5015292;28;20906;-90
2022/06/11 08:38:06;;;;;;;7.77;4.00;;;30.30;99.90;;;;;;5021915;28;20428;-87
2022/06/11 08:40:39;;;;;;;5.00;3.20;;;30.60;95.10;;;;;;5039131;28;20192;-87
2022/06/11 08:43:19;;;;;;;4.30;3.90;;;29.00;87.30;;;;;;5036963;28;20468;-88
2022/06/11 08:45:47;;;;;;;4.97;3.10;;;28.50;90.00;;;;;;5035378;28;20464;-91
2022/06/11 08:48:36;;;;;;;3.47;3.17;;;27.40;80.20;;;;;;5017605;28;20541;-90
2022/06/11 08:51:19;;;;;;;3.00;2.60;;;26.00;93.30;;;;;;5038606;28;20440;-87
2022/06/11 08:53:46;;;;;;;4.23;2.07;;;27.30;93.40;;;;;;5035421;28;20428;-88
2022/06/11 08:56:20;;;;;;;4.70;2.20;;;29.30;90.00;;;;;;5017090;28;20479;-87
2022/06/11 08:59:10;;;;;;;2.07;1.10;;;30.00;71.20;;;;;;5034867;28;20440;-87
2022/06/11 09:02:10;;;;;;;3.30;1.53;;;30.10;53.20;;;;;;5028837;28;20549;-91
2022/06/11 09:04:38;;;;;;;2.10;1.37;;;30.80;53.00;;;;;;5010182;28;20468;-87
2022/06/11 09:07:34;;;;;;;3.17;1.50;;;31.30;47.20;;;;;;5020290;28;20420;-94
2022/06/11 09:10:09;;;;;;;2.43;1.20;;;30.90;31.70;;;;;;5013893;28;20454;-87
2022/06/11 09:13:13;;;;;;;3.93;1.20;;;31.20;38.60;;;;;;5013259;28;20442;-88
2022/06/11 09:15:58;;;;;;;3.90;1.60;;;31.50;37.50;;;;;;5006862;28;20512;-89
2022/06/11 09:18:51;;;;;;;3.03;1.23;;;29.70;24.40;;;;;;5004513;28;20424;-89
2022/06/11 09:21:31;;;;;;;3.10;1.60;;;30.30;28.70;;;;;;5022630;28;20481;-92
2022/06/11 09:24:14;;;;;;;1.83;1.13;;;30.80;29.40;;;;;;5025298;28;20492;-92
2022/06/11 09:26:43;;;;;;;2.53;1.30;;;30.60;25.40;;;;;;5008111;28;20830;-92
2022/06/11 09:29:29;;;;;;;2.43;1.07;;;31.30;29.20;;;;;;5024808;28;20414;-93
2022/06/11 09:32:10;;;;;;;2.60;1.17;;;30.50;25.00;;;;;;5002587;28;20457;-91
2022/06/11 09:34:50;;;;;;;3.67;1.00;;;29.80;15.50;;;;;;5011071;28;20478;-90
2022/06/11 09:37:24;;;;;;;2.03;1.03;;;29.90;13.50;;;;;;5023510;28;20496;-93
2022/06/11 09:40:02;;;;;;;3.60;1.30;;;30.90;19.60;;;;;;5013112;28;20819;-90
2022/06/11 09:42:51;;;;;;;2.70;1.00;;;30.70;18.40;;;;;;5008611;28;20531;-91
2022/06/11 09:45:24;;;;;;;2.50;1.23;;;30.70;15.90;;;;;;5022538;28;20438;-93
2022/06/11 09:48:27;;;;;;;2.20;0.90;;;31.20;17.30;;;;;;5020965;28;21248;-94
2022/06/11 09:51:15;;;;;;;2.93;0.77;;;31.10;17.40;;;;;;4995232;28;20469;-89
2022/06/11 09:54:25;;;;;;;2.50;0.90;;;31.60;19.20;;;;;;5009216;28;20457;-91
2022/06/11 09:57:03;;;;;;;2.30;1.10;;;31.70;17.80;;;;;;5012941;28;20426;-95
2022/06/11 10:00:03;;;;;;;2.50;1.10;;;31.20;11.00;;;;;;5016995;28;20428;-94
2022/06/11 10:02:59;;;;;;;3.50;1.33;;;30.20;14.50;;;;;;5020552;28;20468;-94
2022/06/11 10:05:43;;;;;;;4.20;1.93;;;30.90;9.20;;;;;;5012823;28;20512;-93
2022/06/11 10:08:28;;;;;;;3.90;1.90;;;30.30;3.50;;;;;;5000778;28;20778;-91
2022/06/11 10:10:56;;;;;;;2.60;0.87;;;30.00;1.00;;;;;;5006672;28;20429;-90
2022/06/11 10:13:46;;;;;;;1.93;1.00;;;30.60;5.50;;;;;;5025724;28;20422;-90
2022/06/11 10:16:34;;;;;;;3.17;1.50;;;31.30;10.80;;;;;;5006418;28;20512;-89
2022/06/11 10:19:19;;;;;;;1.83;1.13;;;30.50;2.30;;;;;;5022866;28;20477;-88
2022/06/11 10:21:57;;;;;;;1.43;1.10;;;29.80;1.00;;;;;;5007538;28;20475;-89
2022/06/11 10:24:27;;;;;;;2.73;1.17;;;29.00;1.00;;;;;;5021059;28;20413;-90
2022/06/11 10:27:15;;;;;;;2.33;1.37;;;29.50;1.00;;;;;;5021571;28;20509;-92
2022/06/11 10:29:47;;;;;;;2.53;1.40;;;29.10;1.00;;;;;;5020768;28;20513;-90
2022/06/11 10:32:37;;;;;;;2.70;1.20;;;29.90;1.00;;;;;;5003456;28;20528;-91
2022/06/11 10:35:17;;;;;;;1.63;0.93;;;30.40;1.00;;;;;;5006577;28;20435;-90
2022/06/11 10:37:49;;;;;;;3.30;1.00;;;30.60;1.00;;;;;;5022235;28;20406;-88
2022/06/11 10:40:31;;;;;;;1.97;0.70;;;30.40;1.00;;;;;;5022299;28;20953;-94
2022/06/11 10:43:24;;;;;;;1.43;0.90;;;30.40;1.00;;;;;;5024480;28;20472;-89
2022/06/11 10:45:50;;;;;;;4.37;1.30;;;30.60;1.00;;;;;;5013254;28;20443;-89
2022/06/11 10:48:23;;;;;;;2.63;1.43;;;30.60;1.00;;;;;;5008221;28;20433;-90
2022/06/11 10:50:50;;;;;;;2.43;1.10;;;30.60;1.00;;;;;;5005116;28;20182;-89
2022/06/11 10:53:26;;;;;;;5.87;1.83;;;30.70;1.00;;;;;;5003007;28;20409;-91
2022/06/11 10:55:57;;;;;;;1.53;1.20;;;30.60;1.00;;;;;;5004936;28;20789;-90
2022/06/11 10:58:44;;;;;;;4.60;1.30;;;30.50;1.00;;;;;;5003684;28;20413;-91
2022/06/11 11:01:16;;;;;;;4.40;1.30;;;30.30;1.00;;;;;;5024000;28;20453;-89
2022/06/11 11:04:14;;;;;;;3.07;1.17;;;30.20;1.00;;;;;;5005183;28;20421;-88
2022/06/11 11:06:41;;;;;;;4.73;1.63;;;30.60;1.00;;;;;;5008916;28;20413;-88
2022/06/11 11:09:21;;;;;;;3.53;1.47;;;30.30;1.00;;;;;;5005060;28;20428;-92
2022/06/11 11:11:55;;;;;;;4.80;1.63;;;28.70;1.00;;;;;;5006767;28;20402;-90
2022/06/11 11:14:40;;;;;;;3.70;1.47;;;29.00;1.00;;;;;;5006187;28;20409;-92
2022/06/11 11:17:18;;;;;;;2.37;1.20;;;30.00;1.00;;;;;;5004421;28;20448;-92
2022/06/11 11:20:29;;;;;;;4.23;1.60;;;29.30;1.00;;;;;;5025050;28;21079;-88
2022/06/11 11:22:59;;;;;;;4.87;1.80;;;28.50;1.00;;;;;;5022399;28;21062;-91
2022/06/11 11:25:33;;;;;;;3.77;1.10;;;27.30;1.00;;;;;;5001640;28;20422;-92
2022/06/11 11:28:00;;;;;;;4.70;1.37;;;28.60;1.00;;;;;;5024926;28;20494;-94
2022/06/11 11:30:34;;;;;;;3.80;1.30;;;29.30;1.00;;;;;;5031445;28;20428;-86
2022/06/11 11:33:24;;;;;;;2.73;1.60;;;28.60;1.00;;;;;;5009051;28;20499;-87
2022/06/11 11:36:00;;;;;;;6.53;2.57;;;29.70;1.00;;;;;;5025880;28;20922;-88
2022/06/11 11:38:27;;;;;;;3.80;1.57;;;27.50;1.00;;;;;;5025919;28;20575;-87
2022/06/11 11:40:59;;;;;;;7.07;2.80;;;28.50;1.00;;;;;;5025721;28;20414;-88
2022/06/11 11:43:35;;;;;;;18.43;4.17;;;28.90;1.00;;;;;;5024799;28;20780;-88
2022/06/11 11:46:06;;;;;;;4.30;2.10;;;29.00;1.00;;;;;;5009557;28;20413;-87
2022/06/11 11:48:37;;;;;;;5.33;1.47;;;29.10;1.00;;;;;;5005673;28;20434;-87
2022/06/11 11:51:09;;;;;;;5.20;1.30;;;28.90;1.00;;;;;;5024314;28;20511;-92
2022/06/11 11:53:48;;;;;;;10.40;1.73;;;27.40;1.00;;;;;;5007239;28;20433;-89
2022/06/11 11:56:49;;;;;;;4.50;1.60;;;26.60;1.00;;;;;;5009148;28;20508;-89
2022/06/11 11:59:25;;;;;;;4.30;1.40;;;28.00;1.00;;;;;;5019931;28;20427;-91
2022/06/11 12:01:57;;;;;;;5.00;2.07;;;29.20;1.00;;;;;;5027829;28;20472;-90
2022/06/11 12:04:31;;;;;;;3.90;1.57;;;29.40;1.00;;;;;;5010021;28;20413;-89
2022/06/11 12:07:03;;;;;;;8.20;2.40;;;28.00;1.00;;;;;;5026414;28;20430;-87
2022/06/11 12:09:30;;;;;;;5.07;1.53;;;27.40;1.00;;;;;;5005212;28;20463;-88
2022/06/11 12:12:18;;;;;;;4.93;1.93;;;28.40;1.00;;;;;;5027319;28;20781;-91
2022/06/11 12:15:01;;;;;;;5.10;1.97;;;28.90;1.00;;;;;;5025822;28;20418;-88
2022/06/11 12:17:56;;;;;;;5.77;1.87;;;29.80;1.00;;;;;;5016937;28;20437;-88
2022/06/11 12:20:44;;;;;;;5.60;1.67;;;28.40;1.00;;;;;;5010531;28;20440;-91
2022/06/11 12:23:35;;;;;;;7.33;1.93;;;27.00;1.00;;;;;;5011050;28;21056;-91
2022/06/11 12:26:18;;;;;;;5.27;1.80;;;27.80;1.00;;;;;;5026723;28;20777;-93
2022/06/11 12:28:58;;;;;;;3.30;1.47;;;28.30;1.00;;;;;;5014303;28;20444;-90
2022/06/11 12:31:26;;;;;;;5.30;1.20;;;28.30;1.00;;;;;;5040083;28;20468;-89
2022/06/11 12:33:52;;;;;;;6.13;2.10;;;29.00;1.00;;;;;;5029989;28;20437;-87
2022/06/11 12:36:32;;;;;;;4.73;1.67;;;28.50;1.00;;;;;;5035767;28;20813;-89
2022/06/11 12:39:16;;;;;;;4.63;1.67;;;27.30;1.00;;;;;;5035400;28;20479;-87
2022/06/11 12:42:09;;;;;;;2.63;1.93;;;27.80;1.00;;;;;;5017841;28;20568;-89
2022/06/11 12:44:51;;;;;;;4.63;1.83;;;28.90;1.00;;;;;;5036450;28;20452;-87
2022/06/11 12:47:54;;;;;;;4.90;1.50;;;28.80;1.00;;;;;;5017482;28;20436;-91
2022/06/11 12:51:03;;;;;;;5.53;1.70;;;29.30;1.00;;;;;;5017649;28;20433;-86
2022/06/11 12:53:56;;;;;;;3.87;1.73;;;28.70;1.00;;;;;;5007459;28;20422;-86
2022/06/11 12:56:39;;;;;;;5.47;1.10;;;29.40;1.00;;;;;;4996915;28;20794;-87
2022/06/11 12:59:08;;;;;;;5.87;1.77;;;28.70;1.00;;;;;;5014620;28;20824;-86
2022/06/11 13:01:47;;;;;;;6.87;2.63;;;27.90;1.00;;;;;;5015935;28;20458;-86
2022/06/11 13:04:41;;;;;;;6.07;1.60;;;28.70;1.00;;;;;;5014234;28;20425;-86
2022/06/11 13:07:11;;;;;;;3.27;1.17;;;28.60;1.00;;;;;;4996457;28;20837;-87
2022/06/11 13:10:08;;;;;;;8.60;1.80;;;27.70;1.00;;;;;;4996357;28;20424;-86
2022/06/11 13:13:06;;;;;;;4.30;1.40;;;27.30;1.00;;;;;;4996353;28;21021;-88
2022/06/11 13:15:49;;;;;;;4.00;1.80;;;26.80;1.00;;;;;;5014080;28;20551;-90
2022/06/11 13:18:42;;;;;;;3.30;1.20;;;26.20;1.00;;;;;;4996840;28;20484;-87
2022/06/11 13:21:30;;;;;;;2.80;1.20;;;27.20;1.00;;;;;;4996527;28;20442;-91
2022/06/11 13:24:01;;;;;;;7.00;1.63;;;27.20;1.00;;;;;;5013800;28;21331;-88
2022/06/11 13:26:39;;;;;;;3.70;1.67;;;27.50;1.00;;;;;;5014727;28;20954;-87